Weather History for Wahoo, NE

Change the Weather History Date:

Friday, March 1, 2013

  Actual Average Record
Temperature  
Mean Temperature 26 °F -  
Max Temperature 31 °F 49 °F 74 °F (1974)
Min Temperature 20 °F 21 °F 0 °F (2014)
Degree Days  
Heating Degree Days 40    
Moisture  
Dew Point 19 °F    
Average Humidity 74    
Maximum Humidity 83    
Minimum Humidity 64    
Precipitation  
Precipitation 0.00 in - - ()
Sea Level Pressure  
Sea Level Pressure 30.29 in    
Wind  
Wind Speed 14 mph (North)    
Max Wind Speed 21 mph    
Max Gust Speed 25 mph    
Visibility 9 miles    
Events Snow    
Averages and records for this station are not official NWS values.
T = Trace of Precipitation, MM = Missing Value Source: NWS Daily Summary

Daily Weather History Graph

Daily Weather History Graph

Search for Another Location

Airport:

Trip Planner

Search our weather history database for the weather conditions in past years. The results will help you decide how hot, cold, wet, or windy it might be!

Date:

Astronomy

Mar. 01, 2013 Rise Set
Actual Time 7:00 AM CST 6:17 PM CST
Civil Twilight 6:32 AM CST 6:45 PM CST
Nautical Twilight 6:00 AM CST 7:17 PM CST
Astronomical Twilight 5:28 AM CST 7:49 PM CST
Moon 10:55 PM CST (3/1) 8:44 AM CST (3/1)
Length of Visible Light 12h 12m
Length of Day
11h 17m
Waning Gibbous, 83% of the Moon is Illuminated
Mar 1
Waning Gibbous
Mar 4
Last Quarter
Mar 11
New
Mar 19
First Quarter
Mar 27
Full

Hourly Weather History & Observations

Time (CST) Temp. Windchill Dew Point Humidity Pressure Visibility Wind Dir Wind Speed Gust Speed Precip Events Conditions
12:15 AM 25.9 °F 13.3 °F 20.1 °F 79% 30.22 in 10.0 mi NNW 16.1 mph 20.7 mph N/A   Overcast
12:35 AM 25.9 °F 14.8 °F 20.3 °F 79% 30.23 in 10.0 mi North 12.7 mph 19.6 mph N/A   Overcast
1:15 AM 26.1 °F 14.0 °F 20.3 °F 79% 30.23 in 10.0 mi NNW 15.0 mph 18.4 mph N/A   Overcast
1:35 AM 26.1 °F 15.6 °F 20.3 °F 79% 30.23 in 10.0 mi NNW 11.5 mph 18.4 mph N/A   Overcast
1:55 AM 26.1 °F 14.5 °F 20.3 °F 79% 30.24 in 10.0 mi North 13.8 mph - N/A   Overcast
2:15 AM 26.1 °F 15.0 °F 20.3 °F 79% 30.23 in 10.0 mi NNW 12.7 mph - N/A   Overcast
2:35 AM 26.1 °F 14.5 °F 19.9 °F 78% 30.23 in 10.0 mi NNW 13.8 mph - N/A   Overcast
2:55 AM 25.7 °F 14.0 °F 19.8 °F 78% 30.23 in 10.0 mi NNW 13.8 mph - N/A   Overcast
3:35 AM 25.7 °F 12.3 °F 19.4 °F 77% 30.23 in 10.0 mi NNW 18.4 mph - N/A   Overcast
3:55 AM 25.5 °F 13.3 °F 19.2 °F 77% 30.23 in 10.0 mi North 15.0 mph - N/A   Overcast
4:15 AM 25.5 °F 12.4 °F 19.4 °F 78% 30.23 in 10.0 mi North 17.3 mph - N/A   Overcast
4:35 AM 25.3 °F 14.1 °F 19.9 °F 80% 30.23 in 10.0 mi NNW 12.7 mph - N/A   Overcast
4:55 AM 24.8 °F 12.9 °F 18.1 °F 76% 30.23 in 10.0 mi NNW 13.8 mph - N/A   Overcast
5:15 AM 24.8 °F 14.6 °F 18.3 °F 76% 30.24 in 10.0 mi NNW 10.4 mph - N/A   Overcast
5:35 AM 24.8 °F 14.0 °F 18.3 °F 76% 30.24 in 10.0 mi NNW 11.5 mph 16.1 mph N/A   Overcast
6:15 AM 24.4 °F 11.9 °F 18.3 °F 78% 30.24 in 10.0 mi NNW 15.0 mph 18.4 mph N/A Snow Light Snow
6:35 AM 24.3 °F 12.2 °F 18.5 °F 79% 30.25 in 10.0 mi NNW 13.8 mph 18.4 mph N/A Snow Light Snow
6:55 AM 24.3 °F 13.3 °F 18.5 °F 79% 30.25 in 10.0 mi NNW 11.5 mph - N/A Snow Light Snow
7:15 AM 24.4 °F 13.0 °F 18.7 °F 79% 30.26 in 7.0 mi NNW 12.7 mph - N/A Snow Light Snow
7:35 AM 24.4 °F 12.4 °F 19.0 °F 80% 30.26 in 7.0 mi NW 13.8 mph - N/A Snow Light Snow
7:55 AM 24.8 °F 12.4 °F 19.0 °F 79% 30.27 in 10.0 mi NNW 15.0 mph 20.7 mph N/A   Overcast
8:15 AM 24.8 °F 12.9 °F 19.0 °F 79% 30.27 in 10.0 mi NNW 13.8 mph 19.6 mph N/A Snow Light Snow
8:35 AM 24.8 °F 13.4 °F 19.4 °F 80% 30.28 in 7.0 mi NNW 12.7 mph - N/A Snow Light Snow
9:15 AM 25.3 °F 14.7 °F 20.1 °F 81% 30.29 in 7.0 mi NNW 11.5 mph - N/A Snow Light Snow
9:35 AM 25.5 °F 14.3 °F 20.1 °F 80% 30.29 in 7.0 mi NNW 12.7 mph 19.6 mph N/A Snow Light Snow
9:55 AM 26.2 °F 14.7 °F 20.8 °F 80% 30.29 in 7.0 mi NNW 13.8 mph - N/A Snow Light Snow
10:15 AM 27.1 °F 15.4 °F 21.2 °F 78% 30.29 in 7.0 mi North 15.0 mph 20.7 mph N/A Snow Light Snow
10:35 AM 27.5 °F 15.4 °F 21.6 °F 78% 30.29 in 5.0 mi NNW 16.1 mph 20.7 mph N/A Snow Light Snow
11:15 AM 29.3 °F 17.3 °F 20.3 °F 69% 30.29 in 10.0 mi North 17.3 mph 24.2 mph N/A   Overcast
11:35 AM 29.3 °F 17.7 °F 19.8 °F 68% 30.29 in 10.0 mi North 16.1 mph - N/A   Overcast
12:15 PM 29.3 °F 17.0 °F 19.6 °F 67% 30.30 in 10.0 mi North 18.4 mph - N/A   Overcast
12:35 PM 30.0 °F 18.7 °F 19.9 °F 66% 30.29 in 10.0 mi North 16.1 mph - N/A   Overcast
12:55 PM 29.8 °F 18.0 °F 19.6 °F 66% 30.29 in 10.0 mi North 17.3 mph 24.2 mph N/A   Overcast
1:35 PM 30.2 °F 17.8 °F 19.6 °F 65% 30.28 in 10.0 mi North 19.6 mph - N/A   Overcast
1:55 PM 30.9 °F 18.4 °F 20.1 °F 64% 30.28 in 10.0 mi North 20.7 mph - N/A   Overcast
2:15 PM 30.9 °F 18.7 °F 19.9 °F 64% 30.27 in 10.0 mi NNW 19.6 mph 24.2 mph N/A   Overcast
2:35 PM 31.1 °F 18.6 °F 20.3 °F 64% 30.27 in 10.0 mi North 20.7 mph - N/A   Overcast
2:55 PM 30.7 °F 18.8 °F 20.3 °F 65% 30.27 in 10.0 mi North 18.4 mph 25.3 mph N/A   Overcast
3:15 PM 30.7 °F 18.1 °F 20.5 °F 66% 30.27 in 10.0 mi North 20.7 mph 25.3 mph N/A   Overcast
3:35 PM 30.4 °F 18.4 °F 20.3 °F 66% 30.28 in 10.0 mi North 18.4 mph 24.2 mph N/A   Overcast
3:55 PM 29.5 °F 18.0 °F 19.9 °F 68% 30.28 in 10.0 mi North 16.1 mph 24.2 mph N/A   Overcast
4:15 PM 30.6 °F 18.6 °F 19.8 °F 64% 30.28 in 10.0 mi NNW 18.4 mph 23.0 mph N/A   Overcast
4:35 PM 29.5 °F 18.4 °F 19.0 °F 65% 30.29 in 10.0 mi North 15.0 mph 19.6 mph N/A   Overcast
5:15 PM 28.9 °F 18.2 °F 19.0 °F 67% 30.31 in 10.0 mi North 13.8 mph - N/A   Overcast
5:35 PM 28.2 °F 17.7 °F 18.9 °F 68% 30.31 in 10.0 mi North 12.7 mph - N/A   Mostly Cloudy
5:55 PM 27.9 °F 17.8 °F 18.5 °F 68% 30.32 in 10.0 mi North 11.5 mph - N/A   Overcast
6:15 PM 27.5 °F 16.8 °F 19.0 °F 71% 30.33 in 10.0 mi North 12.7 mph - N/A   Overcast
6:35 PM 27.1 °F 15.4 °F 18.5 °F 70% 30.33 in 10.0 mi North 15.0 mph - N/A   Overcast
6:55 PM 26.6 °F 16.8 °F 18.7 °F 72% 30.33 in 10.0 mi North 10.4 mph - N/A   Overcast
7:15 PM 26.6 °F 16.2 °F 18.5 °F 71% 30.34 in 10.0 mi North 11.5 mph - N/A   Overcast
7:35 PM 26.6 °F 15.7 °F 18.3 °F 71% 30.34 in 10.0 mi North 12.7 mph - N/A   Overcast
8:15 PM 25.5 °F 14.9 °F 17.6 °F 72% 30.34 in 10.0 mi North 11.5 mph - N/A   Mostly Cloudy
8:35 PM 25.5 °F 14.3 °F 17.8 °F 72% 30.34 in 10.0 mi North 12.7 mph 17.3 mph N/A   Overcast
8:55 PM 25.3 °F 16.7 °F 18.5 °F 75% 30.35 in 10.0 mi North 8.1 mph - N/A   Overcast
9:15 PM 25.5 °F 15.5 °F 18.1 °F 74% 30.35 in 10.0 mi North 10.4 mph - N/A   Overcast
9:35 PM 25.3 °F 16.7 °F 18.5 °F 75% 30.35 in 10.0 mi North 8.1 mph - N/A   Overcast
9:55 PM 24.8 °F 14.6 °F 18.5 °F 77% 30.36 in 10.0 mi North 10.4 mph - N/A   Overcast
10:15 PM 24.3 °F 16.3 °F 17.6 °F 76% 30.36 in 10.0 mi North 6.9 mph - N/A   Overcast
10:35 PM 23.7 °F 14.7 °F 17.2 °F 76% 30.36 in 10.0 mi North 8.1 mph - N/A   Overcast
10:55 PM 21.9 °F 13.4 °F 16.3 °F 79% 30.36 in 10.0 mi North 6.9 mph - N/A   Mostly Cloudy
11:15 PM 21.9 °F 14.5 °F 16.5 °F 80% 30.35 in 7.0 mi NNE 5.8 mph - N/A   Scattered Clouds
11:35 PM 20.3 °F 12.5 °F 15.8 °F 83% 30.35 in 7.0 mi NNE 5.8 mph - N/A   Mostly Cloudy
11:55 PM 20.3 °F 13.8 °F 15.8 °F 83% 30.35 in 7.0 mi NNE 4.6 mph - N/A   Scattered Clouds